Map

Track Data

SID SEASON NUMBER BASIN SUBBASIN NAME ISO_TIME NATURE LAT LON WMO_WIND WMO_PRES WMO_AGENCY TRACK_TYPE DIST2LAND LANDFALL IFLAG USA_AGENCY USA_ATCF_ID USA_LAT USA_LON USA_RECORD USA_STATUS USA_WIND USA_PRES USA_SSHS USA_R34_NE USA_R34_SE USA_R34_SW USA_R34_NW USA_R50_NE USA_R50_SE USA_R50_SW USA_R50_NW USA_R64_NE USA_R64_SE USA_R64_SW USA_R64_NW USA_POCI USA_ROCI USA_RMW USA_EYE TOKYO_LAT TOKYO_LON TOKYO_GRADE TOKYO_WIND TOKYO_PRES TOKYO_R50_DIR TOKYO_R50_LONG TOKYO_R50_SHORT TOKYO_R30_DIR TOKYO_R30_LONG TOKYO_R30_SHORT TOKYO_LAND CMA_LAT CMA_LON CMA_CAT CMA_WIND CMA_PRES HKO_LAT HKO_LON HKO_CAT HKO_WIND HKO_PRES NEWDELHI_LAT NEWDELHI_LON NEWDELHI_GRADE NEWDELHI_WIND NEWDELHI_PRES NEWDELHI_CI NEWDELHI_DP NEWDELHI_POCI REUNION_LAT REUNION_LON REUNION_TYPE REUNION_WIND REUNION_PRES REUNION_TNUM REUNION_CI REUNION_RMW REUNION_R34_NE REUNION_R34_SE REUNION_R34_SW REUNION_R34_NW REUNION_R50_NE REUNION_R50_SE REUNION_R50_SW REUNION_R50_NW REUNION_R64_NE REUNION_R64_SE REUNION_R64_SW REUNION_R64_NW BOM_LAT BOM_LON BOM_TYPE BOM_WIND BOM_PRES BOM_TNUM BOM_CI BOM_RMW BOM_R34_NE BOM_R34_SE BOM_R34_SW BOM_R34_NW BOM_R50_NE BOM_R50_SE BOM_R50_SW BOM_R50_NW BOM_R64_NE BOM_R64_SE BOM_R64_SW BOM_R64_NW BOM_ROCI BOM_POCI BOM_EYE BOM_POS_METHOD BOM_PRES_METHOD NADI_LAT NADI_LON NADI_CAT NADI_WIND NADI_PRES WELLINGTON_LAT WELLINGTON_LON WELLINGTON_WIND WELLINGTON_PRES DS824_LAT DS824_LON DS824_STAGE DS824_WIND DS824_PRES TD9636_LAT TD9636_LON TD9636_STAGE TD9636_WIND TD9636_PRES TD9635_LAT TD9635_LON TD9635_WIND TD9635_PRES TD9635_ROCI NEUMANN_LAT NEUMANN_LON NEUMANN_CLASS NEUMANN_WIND NEUMANN_PRES MLC_LAT MLC_LON MLC_CLASS MLC_WIND MLC_PRES USA_GUST BOM_GUST BOM_GUST_PER REUNION_GUST REUNION_GUST_PER USA_SEAHGT USA_SEARAD_NE USA_SEARAD_SE USA_SEARAD_SW USA_SEARAD_NW STORM_SPEED STORM_DIR
1986112N02152 1986 44 WP MM KEN 1986-04-22 00:00:00 NR 1.90000 152.200 main 535 532 __________O___ -1 1.90000 152.200 1 25 6 292
1986112N02152 1986 44 WP MM KEN 1986-04-22 03:00:00 NR 2.00445 151.943 main 538 536 __________P___ -1 2.00445 151.943 1 25 6 291
1986112N02152 1986 44 WP MM KEN 1986-04-22 06:00:00 NR 2.11712 151.629 main 543 542 __________P___ -1 2.11712 151.629 1 25 8 288
1986112N02152 1986 44 WP MM KEN 1986-04-22 09:00:00 NR 2.24624 151.201 main 550 550 __________P___ -1 2.24624 151.201 1 25 11 285
1986112N02152 1986 44 WP MM KEN 1986-04-22 12:00:00 NR 2.40000 150.600 main 572 572 __________O___ -1 2.40000 150.600 1 25 14 284
1986112N02152 1986 44 WP MM KEN 1986-04-22 15:00:00 NR 2.58299 149.798 main 590 570 __________P___ -1 2.58299 149.798 1 25 18 283
1986112N02152 1986 44 WP MM KEN 1986-04-22 18:00:00 NR 2.78576 148.885 main 573 565 __________P___ -1 2.78576 148.885 1 25 19 283
1986112N02152 1986 44 WP MM KEN 1986-04-22 21:00:00 NR 2.99557 147.979 main 575 573 __________P___ -1 2.99557 147.979 1 25 17 284
1986112N02152 1986 44 WP MM KEN 1986-04-23 00:00:00 NR 3.20000 147.200 main 593 593 __________O___ -1 3.20000 147.200 1 25 13 288
1986112N02152 1986 44 WP MM KEN 1986-04-23 03:00:00 NR 3.39799 146.702 main 616 616 __________P___ -1 3.39799 146.702 1 25 9 294
1986112N02152 1986 44 WP MM KEN 1986-04-23 06:00:00 NR 3.58694 146.343 main 639 639 __________P___ -1 3.58694 146.343 1 25 7 299
1986112N02152 1986 44 WP MM KEN 1986-04-23 09:00:00 NR 3.75746 146.062 main 663 663 __________P___ -1 3.75746 146.062 1 25 6 300
1986112N02152 1986 44 WP MM KEN 1986-04-23 12:00:00 NR 3.90000 145.800 main 678 678 __________O___ -1 3.90000 145.800 1 25 6 291
1986112N02152 1986 44 WP MM KEN 1986-04-23 15:00:00 NR 3.97927 145.484 main 694 694 __________P___ -1 3.97927 145.484 1 25 6 282
1986112N02152 1986 44 WP MM KEN 1986-04-23 18:00:00 NR 4.03485 145.172 main 701 701 __________P___ -1 4.03485 145.172 1 25 6 281
1986112N02152 1986 44 WP MM KEN 1986-04-23 21:00:00 NR 4.09801 144.849 main 723 723 __________P___ -1 4.09801 144.849 1 25 7 284
1986112N02152 1986 44 WP MM KEN 1986-04-24 00:00:00 NR 4.20000 144.500 main 743 743 __________O___ -1 4.20000 144.500 1 25 8 291
1986112N02152 1986 44 WP MM KEN 1986-04-24 03:00:00 NR 4.39008 144.084 main 779 779 __________P___ -1 4.39008 144.084 1 26 8 304
1986112N02152 1986 44 WP MM KEN 1986-04-24 06:00:00 TS 4.65610 143.814 1004 tokyo main 823 823 _O________P___ -1 4.80000 144.500 2 1004 0 0 0 4.62012 143.643 1 27 8 310
1986112N02152 1986 44 WP MM KEN 1986-04-24 09:00:00 TS 4.87258 143.497 main 856 856 _P________P___ -1 4.88757 144.080 2 1004 0 0 4.86509 143.205 1 28 7 299
1986112N02152 1986 44 WP MM KEN 1986-04-24 12:00:00 TS 5.00000 143.200 1004 tokyo main 880 878 _OO_______O___ -1 5.00000 143.700 2 1004 0 0 0 4.60000 143.300 1 23 1004 5.10000 142.800 1 30 6 298
1986112N02152 1986 44 WP MM KEN 1986-04-24 15:00:00 TS 5.17033 142.932 main 893 891 _PP_______P___ -1 5.14996 143.385 2 1004 0 0 4.93255 143.003 1 23 1003 5.30959 142.444 1 30 7 304
1986112N02152 1986 44 WP MM KEN 1986-04-24 18:00:00 TS 5.37360 142.636 1004 tokyo main 907 905 _OO_______P___ -1 5.30000 143.100 2 1004 0 0 0 5.30000 142.700 1 23 1002 5.50240 142.125 1 30 7 306
1986112N02152 1986 44 WP MM KEN 1986-04-24 21:00:00 TS 5.59298 142.341 main 920 920 _PP_______P___ -1 5.40749 142.800 2 1004 0 0 5.70244 142.380 1 23 1002 5.66900 141.844 1 30 7 303
1986112N02152 1986 44 WP MM KEN 1986-04-25 00:00:00 TS 5.76667 142.033 1004 tokyo main 927 914 _OO_______O___ -1 5.50000 142.500 2 1004 0 0 0 6.00000 142.000 1 23 1002 5.80000 141.600 1 30 7 290
1986112N02152 1986 44 WP MM KEN 1986-04-25 03:00:00 TS 5.82958 141.689 main 914 906 _PP_______P___ -1 5.58499 142.200 2 1003 0 0 6.03012 141.470 1 23 1002 5.87364 141.397 1 30 7 279
1986112N02152 1986 44 WP MM KEN 1986-04-25 06:00:00 TS 5.87162 141.376 1002 tokyo main 912 904 _OO_______P___ -1 5.70000 141.900 2 1002 0 0 0 6.00000 141.000 1 23 1002 5.91486 141.227 1 30 6 287
1986112N02152 1986 44 WP MM KEN 1986-04-25 09:00:00 TS 5.99202 141.155 main 914 910 _PP_______P___ -1 5.89248 141.600 2 1002 0 0 6.13492 140.798 1 23 1002 5.94865 141.069 1 30 5 303
1986112N02152 1986 44 WP MM KEN 1986-04-25 12:00:00 TS 6.13333 140.967 1002 tokyo main 917 913 _OO_______O___ -1 6.10000 141.300 2 1002 0 0 0 6.30000 140.700 1 23 1002 6.00000 140.900 1 30 5 301
1986112N02152 1986 44 WP MM KEN 1986-04-25 15:00:00 TS 6.25753 140.716 main 927 921 _PP_______P___ -1 6.25751 140.977 2 1002 0 0 6.40750 140.550 1 23 1002 6.10759 140.620 1 31 5 297
1986112N02152 1986 44 WP MM KEN 1986-04-25 18:00:00 TS 6.37837 140.479 1002 tokyo main 932 929 _OO_______P___ -1 6.40000 140.700 2 1002 0 0 0 6.50000 140.400 1 23 1002 6.23511 140.338 1 32 5 301
1986112N02152 1986 44 WP MM KEN 1986-04-25 21:00:00 TS 6.50917 140.296 main 937 937 _PP_______P___ -1 6.55746 140.535 2 1002 0 0 6.60000 140.243 1 23 1002 6.37005 140.111 1 33 4 309
1986112N02152 1986 44 WP MM KEN 1986-04-26 00:00:00 TS 6.63333 140.167 1002 tokyo main 945 945 _OO_______O___ -1 6.70000 140.400 2 1002 0 0 0 6.70000 140.100 1 23 1002 6.50000 140.000 1 35 3 322
1986112N02152 1986 44 WP MM KEN 1986-04-26 03:00:00 TS 6.73284 140.117 main 953 953 _PP_______P___ -1 6.80751 140.200 2 1002 0 0 6.79999 139.992 1 23 1001 6.59101 140.159 1 37 2 343
1986112N02152 1986 44 WP MM KEN 1986-04-26 06:00:00 TS 6.82587 140.107 1002 tokyo main 964 964 _OO_______P___ -1 6.90000 140.000 2 1002 0 0 0 6.90000 139.900 1 23 1000 6.67762 140.422 1 40 2 353
1986112N02152 1986 44 WP MM KEN 1986-04-26 09:00:00 TS 6.92512 140.101 main 975 975 _PP_______P___ -1 6.99999 139.835 2 1001 0 0 7.00000 139.792 1 23 1000 6.77536 140.674 1 42 2 352
1986112N02152 1986 44 WP MM KEN 1986-04-26 12:00:00 TS 7.03333 140.067 1000 tokyo main 986 986 _OO_______O___ -1 7.10000 139.700 2 1000 0 0 0 7.10000 139.700 1 23 1000 6.90000 140.800 0 45 3 326
1986112N02152 1986 44 WP MM KEN 1986-04-26 15:00:00 TS 7.15330 139.945 main 1000 995 _PP_______P___ -1 7.19250 139.585 2 998 0 0 7.20000 139.643 1 26 999 7.06740 140.607 0 46 4 313
1986112N02152 1986 44 WP MM KEN 1986-04-26 18:00:00 TS 7.29654 139.781 35 996 tokyo main 1005 1000 OOOO______P___ jtwc_wp WP021986 7.40000 139.700 45 0 7.30000 139.500 3 35 996 0 9 50 50 0 7.30000 139.600 1 29 998 7.30000 139.700 TD 30 995 7.26288 140.283 0 47 4 314
1986112N02152 1986 44 WP MM KEN 1986-04-26 21:00:00 TS 7.44296 139.637 main 1006 1006 PPPP______P___ WP021986 7.55750 139.663 47 0 7.42750 139.428 3 37 994 0 9 50 50 7.37000 139.543 1 29 994 7.43750 139.662 TD 35 992 7.47686 139.917 0 48 4 323
1986112N02152 1986 44 WP MM KEN 1986-04-27 00:00:00 TS 7.61667 139.533 40 992 tokyo main 1022 1022 OOOO______O___ jtwc_wp WP021986 7.70000 139.600 50 0 7.60000 139.400 3 40 992 0 9 50 50 0 7.50000 139.500 1 29 990 7.60000 139.600 TS 40 990 7.70000 139.600 2 50 4 338
1986112N02152 1986 44 WP MM KEN 1986-04-27 03:00:00 TS 7.83073 139.478 main 1043 1043 PPPP______P___ WP021986 7.82751 139.500 55 0 7.83500 139.442 3 50 988 0 9 75 75 7.77750 139.500 1 33 987 7.80001 139.500 TS 47 986 7.91362 139.448 2 55 5 347
1986112N02152 1986 44 WP MM KEN 1986-04-27 06:00:00 TS 8.06697 139.432 60 985 tokyo main 1070 1070 OOOO______P___ jtwc_wp WP021986 8.00000 139.400 60 0 8.10000 139.500 4 60 985 9 50 50 9 100 100 0 8.10000 139.500 2 38 985 8.00000 139.400 STS 55 983 8.13486 139.360 2 60 5 349
1986112N02152 1986 44 WP MM KEN 1986-04-27 09:00:00 TS 8.29823 139.390 main 1091 1091 PPPP______P___ WP021986 8.28500 139.335 65 1 8.35000 139.508 4 60 985 9 50 50 9 112 112 8.35750 139.458 2 43 984 8.13500 139.335 STS 55 982 8.36367 139.317 2 65 5 352
1986112N02152 1986 44 WP MM KEN 1986-04-27 12:00:00 TS 8.54000 139.360 60 985 tokyo main 1112 1112 OOOO______O___ jtwc_wp WP021986 8.60000 139.300 70 1 8.60000 139.500 4 60 985 9 50 50 9 125 125 0 8.60000 139.400 3 48 983 8.30000 139.300 STS 56 981 8.60000 139.300 3 70 5 355
1986112N02152 1986 44 WP MM KEN 1986-04-27 15:00:00 TS 8.79662 139.346 main 1139 1139 PPPP______P___ WP021986 8.85750 139.292 72 1 8.85000 139.515 4 62 982 9 55 55 9 125 125 8.85000 139.343 3 53 981 8.56250 139.292 STS 59 980 8.86311 139.286 3 72 5 358
1986112N02152 1986 44 WP MM KEN 1986-04-27 18:00:00 TS 9.06600 139.338 65 980 tokyo main 1171 1171 OOOO______P___ jtwc_wp WP021986 9.10000 139.300 75 1 9.10000 139.500 5 65 980 9 60 60 9 125 125 0 9.10000 139.300 3 58 980 8.90000 139.300 STS 62 980 9.12998 139.292 3 75 6 357
1986112N02152 1986 44 WP MM KEN 1986-04-27 21:00:00 TS 9.35838 139.322 main 1203 1203 PPPP______P___ WP021986 9.36500 139.300 77 1 9.35751 139.400 5 65 980 9 60 60 9 125 125 9.36500 139.300 3 58 980 9.32250 139.307 STS 66 980 9.38187 139.302 3 77 6 356
1986112N02152 1986 44 WP MM KEN 1986-04-28 00:00:00 TS 9.62000 139.300 65 980 tokyo main 1224 1224 OOOO______O___ jtwc_wp WP021986 9.60000 139.300 80 1 9.60000 139.300 5 65 980 9 60 60 9 125 125 0 9.60000 139.300 3 58 980 9.70000 139.300 T 70 980 9.60000 139.300 4 80 5 354
1986112N02152 1986 44 WP MM KEN 1986-04-28 03:00:00 TS 9.80862 139.282 main 1245 1245 PPPP______P___ WP021986 9.77249 139.315 85 2 9.82249 139.300 5 65 980 9 60 60 9 125 125 9.78000 139.258 3 58 980 9.89499 139.265 T 70 980 9.77311 139.273 4 81 3 351
1986112N02152 1986 44 WP MM KEN 1986-04-28 06:00:00 TS 9.94200 139.246 65 980 tokyo main 1252 1252 OOOO______P___ jtwc_wp WP021986 9.90000 139.300 90 2 10.0000 139.300 5 65 980 9 60 60 9 125 125 0 9.90000 139.200 3 58 980 10.0000 139.200 T 70 980 9.90998 139.230 4 82 3 336
1986112N02152 1986 44 WP MM KEN 1986-04-28 09:00:00 TS 10.0484 139.172 main 1263 1263 PPPP______P___ WP021986 10.0150 139.215 87 2 10.1300 139.215 5 65 980 9 60 60 9 125 125 9.96499 139.158 3 53 985 10.1150 139.100 T 69 981 10.0169 139.173 4 83 2 318
1986112N02152 1986 44 WP MM KEN 1986-04-28 12:00:00 TS 10.1200 139.080 65 980 tokyo main 1270 1267 OOOO______O___ jtwc_wp WP021986 10.1000 139.100 85 2 10.2000 139.100 5 65 980 9 60 60 9 125 125 0 10.0000 139.100 3 48 990 10.2000 139.000 T 68 983 10.1000 139.100 4 85 2 306
1986112N02152 1986 44 WP MM KEN 1986-04-28 15:00:00 TS 10.1749 138.996 main 1278 1274 PPPP______P___ WP021986 10.1575 139.000 82 1 10.2150 139.000 5 62 982 9 60 60 9 125 125 10.0575 139.008 3 48 990 10.2650 138.950 T 64 984 10.1797 139.023 4 81 2 297
1986112N02152 1986 44 WP MM KEN 1986-04-28 18:00:00 TS 10.2075 138.906 60 985 tokyo main 1274 1271 OOOO______P___ jtwc_wp WP021986 10.2000 138.900 80 1 10.2000 138.900 4 60 985 9 60 60 9 125 125 0 10.1000 138.900 3 48 990 10.3000 138.900 STS 60 986 10.2375 138.930 4 77 2 285
1986112N02152 1986 44 WP MM KEN 1986-04-28 21:00:00 TS 10.2238 138.809 main 1271 1268 PPPP______P___ WP021986 10.2575 138.808 75 1 10.1925 138.800 4 52 987 9 9 125 125 10.0925 138.807 3 48 992 10.3000 138.807 STS 55 988 10.2765 138.823 4 73 2 279
1986112N02152 1986 44 WP MM KEN 1986-04-29 00:00:00 TS 10.2400 138.700 45 990 tokyo main 1268 1268 OOOO______O___ jtwc_wp WP021986 10.3000 138.700 70 1 10.2000 138.700 3 45 990 0 9 125 125 0 10.1000 138.700 3 48 995 10.3000 138.700 STS 50 990 10.3000 138.700 4 70 2 283
1986112N02152 1986 44 WP MM KEN 1986-04-29 03:00:00 TS 10.2784 138.580 main 1276 1273 PPPP______P___ WP021986 10.3075 138.557 65 1 10.2425 138.607 3 40 991 0 9 112 112 10.1850 138.550 3 43 996 10.3425 138.615 STS 47 992 10.3144 138.568 4 66 3 288
1986112N02152 1986 44 WP MM KEN 1986-04-29 06:00:00 TS 10.3230 138.444 35 992 tokyo main 1270 1270 OOOO______P___ jtwc_wp WP021986 10.3000 138.400 60 0 10.3000 138.500 3 35 992 0 9 100 100 0 10.3000 138.400 2 38 998 10.4000 138.500 TS 45 994 10.3150 138.422 4 62 3 288
1986112N02152 1986 44 WP MM KEN 1986-04-29 09:00:00 TS 10.3676 138.296 main 1279 1274 PPPP______P___ WP021986 10.3000 138.250 57 0 10.3575 138.358 3 42 994 0 9 100 100 10.4150 138.307 2 38 998 10.4575 138.300 TS 44 995 10.3081 138.265 4 58 3 284
1986112N02152 1986 44 WP MM KEN 1986-04-29 12:00:00 TS 10.4000 138.140 50 996 tokyo main 1274 1271 OOOO______O___ jtwc_wp WP021986 10.3000 138.100 55 0 10.4000 138.200 4 50 996 0 9 100 100 0 10.5000 138.200 2 38 998 10.5000 138.100 TS 43 997 10.3000 138.100 2 55 3 278
1986112N02152 1986 44 WP MM KEN 1986-04-29 15:00:00 TS 10.4121 137.986 main 1271 1267 PPPP______P___ WP021986 10.3000 137.958 52 0 10.4150 138.050 4 50 996 0 9 100 100 10.5225 138.000 2 38 998 10.5150 137.993 TS 41 997 10.3081 137.932 2 52 3 271
1986112N02152 1986 44 WP MM KEN 1986-04-29 18:00:00 TS 10.4030 137.832 50 996 tokyo main 1267 1256 OOOO______P___ jtwc_wp WP021986 10.3000 137.800 50 0 10.4000 137.900 4 50 996 0 9 100 100 0 10.5000 137.800 2 38 998 10.5000 137.900 TS 39 998 10.3150 137.758 2 50 3 264
1986112N02152 1986 44 WP MM KEN 1986-04-29 21:00:00 TS 10.3804 137.677 main 1256 1232 PPPP______P___ WP021986 10.3075 137.600 47 0 10.3575 137.750 4 47 997 0 9 100 100 10.4650 137.700 2 38 998 10.4575 137.757 TS 37 998 10.3144 137.579 2 47 3 258
1986112N02152 1986 44 WP MM KEN 1986-04-30 00:00:00 TS 10.3400 137.520 45 998 tokyo main 1232 1222 OOOO______O___ jtwc_wp WP021986 10.3000 137.400 45 0 10.3000 137.600 3 45 998 0 9 100 100 0 10.4000 137.600 2 38 998 10.4000 137.600 TS 35 999 10.3000 137.400 2 45 3 253
1986112N02152 1986 44 WP MM KEN 1986-04-30 03:00:00 TS 10.2868 137.363 main 1222 1198 PPPP______P___ WP021986 10.2575 137.250 42 0 10.2575 137.465 3 42 998 0 9 75 75 10.3000 137.415 2 33 999 10.3425 137.450 TS 35 999 10.2765 137.237 2 43 3 251
1986112N02152 1986 44 WP MM KEN 1986-04-30 06:00:00 TS 10.2275 137.195 40 998 tokyo main 1198 1177 OOOO______P___ jtwc_wp WP021986 10.2000 137.100 40 0 10.2000 137.300 3 40 998 0 9 50 50 0 10.2000 137.200 1 29 1000 10.3000 137.300 TS 35 999 10.2374 137.073 2 42 4 253
1986112N02152 1986 44 WP MM KEN 1986-04-30 09:00:00 TS 10.1834 137.016 main 1177 1153 PPPP______P___ WP021986 10.1650 136.915 40 0 10.1150 137.073 3 42 998 0 9 75 75 10.1425 137.015 1 29 1000 10.3149 137.180 TS 34 999 10.1796 136.897 2 41 4 254
1986112N02152 1986 44 WP MM KEN 1986-04-30 12:00:00 TS 10.1200 136.800 45 998 tokyo main 1153 1118 OOOO______O___ jtwc_wp WP021986 10.1000 136.700 40 0 10.0000 136.800 3 45 998 0 9 100 100 0 10.1000 136.800 1 29 1000 10.3000 137.000 TD 33 999 10.1000 136.700 2 40 5 250
1986112N02152 1986 44 WP MM KEN 1986-04-30 15:00:00 TS 10.0072 136.521 main 1118 1084 PPPP______P___ WP021986 9.95750 136.457 37 0 9.85749 136.507 3 42 998 0 9 87 87 10.0575 136.515 1 29 1000 10.1951 136.673 TD 31 999 9.96823 136.451 2 37 6 246
1986112N02152 1986 44 WP MM KEN 1986-04-30 18:00:00 TS 9.86403 136.217 40 998 tokyo main 1084 1047 OOOO______P___ jtwc_wp WP021986 9.80000 136.200 35 0 9.70000 136.200 3 40 998 0 9 75 75 0 10.0000 136.200 1 29 1000 10.0000 136.300 TD 30 999 9.82016 136.185 2 35 7 242
1986112N02152 1986 44 WP MM KEN 1986-04-30 21:00:00 TS 9.69540 135.919 main 1047 1023 PPPP______P___ WP021986 9.67751 135.935 32 -1 9.52753 135.870 3 40 999 0 9 87 87 9.89249 135.892 1 29 1000 9.69250 135.970 TD 28 999 9.68698 135.926 2 32 6 241
1986112N02152 1986 44 WP MM KEN 1986-05-01 00:00:00 TS 9.56000 135.660 40 1000 tokyo main 1023 999 OOOO______O___ jtwc_wp WP021986 9.60000 135.700 30 -1 9.40000 135.600 3 40 1000 0 9 100 100 0 9.80000 135.600 1 29 1001 9.40000 135.700 TD 27 1000 9.60000 135.700 1 30 5 247
1986112N02152 1986 44 WP MM KEN 1986-05-01 03:00:00 TS 9.51207 135.482 main 999 978 PPPP______P___ WP021986 9.56998 135.528 27 -1 9.36996 135.463 3 1001 0 9 9.77743 135.358 1 26 1001 9.24746 135.528 TD 26 1000 9.59553 135.535 1 28 3 264
1986112N02152 1986 44 WP MM KEN 1986-05-01 06:00:00 TS 9.52798 135.341 1002 tokyo main 978 969 OOOO______P___ jtwc_wp WP021986 9.60000 135.400 25 -1 9.40000 135.400 2 1002 0 0 0 9.80000 135.100 1 23 1002 9.20000 135.400 TD 25 1000 9.63989 135.405 1 27 3 284
1986112N02152 1986 44 WP MM KEN 1986-05-01 09:00:00 TS 9.58386 135.187 main 969 950 PPPP______P___ WP021986 9.69249 135.293 25 -1 9.43500 135.335 2 1002 0 0 9.85001 134.765 1 23 1002 9.22750 135.243 TD 25 1000 9.71431 135.298 1 26 3 294
1986112N02152 1986 44 WP MM KEN 1986-05-01 12:00:00 TS 9.66000 135.040 1002 tokyo main 950 940 OOOO______O___ jtwc_wp WP021986 9.80000 135.200 25 -1 9.50000 135.300 2 1002 0 0 0 9.90000 134.400 1 23 1002 9.30000 135.100 TD 25 1000 9.80000 135.200 1 25 3 295
1986112N02152 1986 44 WP MM KEN 1986-05-01 15:00:00 TS 9.70508 134.917 main 940 929 PPPP______P___ WP021986 9.85000 135.100 25 -1 9.58500 135.300 2 1003 0 0 9.89991 134.065 1 21 1003 9.33499 134.992 TD 25 1000 9.85550 135.125 1 25 3 293
1986112N02152 1986 44 WP MM KEN 1986-05-01 18:00:00 TS 9.76396 134.790 1004 tokyo main 932 913 OOOO______P___ jtwc_wp WP021986 9.90000 135.000 25 -1 9.70000 135.300 2 1004 0 0 0 9.90000 133.700 0 19 1004 9.40000 134.900 TD 25 1000 9.91979 135.052 1 25 3 299
1986112N02152 1986 44 WP MM KEN 1986-05-01 21:00:00 TS 9.86084 134.637 main 913 913 PPPP______P___ WP021986 9.98495 134.930 25 -1 9.85000 135.258 2 1004 0 0 9.93502 133.257 0 19 1004 9.53501 134.785 TD 25 1000 9.99920 134.953 1 25 3 312
1986112N02152 1986 44 WP MM KEN 1986-05-02 00:00:00 TS 9.97895 134.547 1004 tokyo main 906 906 OOOO______O___ jtwc_wp WP021986 10.1000 134.800 25 -1 10.0000 135.200 2 1004 0 0 0 10.0000 132.800 0 19 1004 9.70000 134.700 TD 25 1000 10.1000 134.800 1 25 3 327
1986112N02152 1986 44 WP MM KEN 1986-05-02 03:00:00 TS 10.1072 134.474 main 909 901 PPPP______P___ WP021986 10.2425 134.530 25 -1 10.1075 135.158 2 1004 0 0 10.0925 132.385 0 19 1004 9.85749 134.692 TD 25 1000 10.2285 134.562 1 25 3 334
1986112N02152 1986 44 WP MM KEN 1986-05-02 06:00:00 TS 10.2418 134.416 1004 tokyo main 901 901 OOOO______P___ jtwc_wp WP021986 10.4000 134.200 25 -1 10.2000 135.100 2 1004 0 0 0 10.2000 132.000 0 19 1004 10.0000 134.700 TD 25 1000 10.3776 134.268 1 25 3 341
1986112N02152 1986 44 WP MM KEN 1986-05-02 09:00:00 TS 10.3738 134.378 main 906 887 PP_P______P___ WP021986 10.5499 133.907 25 -1 10.2925 135.015 2 1004 0 0 0 10.1150 134.650 TD 22 1000 10.5379 133.940 1 25 4 316
1986112N02152 1986 44 WP MM KEN 1986-05-02 12:00:00 TS 10.5200 134.147 1004 tokyo main 876 857 OO_O______O___ jtwc_wp WP021986 10.7000 133.600 25 -1 10.4000 134.900 2 1004 0 0 0 10.2000 134.600 LW 20 1000 10.7000 133.600 1 25 6 302
1986112N02152 1986 44 WP MM KEN 1986-05-02 15:00:00 TS 10.6794 133.879 main 860 841 PP_P______P___ WP021986 10.8500 133.250 25 -1 10.5425 134.765 2 1004 0 0 10.2575 134.588 LW 20 1000 10.8566 133.266 1 23 6 304
1986112N02152 1986 44 WP MM KEN 1986-05-02 18:00:00 TS 10.8294 133.684 1004 tokyo main 841 824 OO_O______P___ jtwc_wp WP021986 11.0000 132.900 25 -1 10.7000 134.600 2 1004 0 0 0 10.3000 134.600 LW 20 1001 11.0076 132.940 1 22 5 311
1986112N02152 1986 44 WP MM KEN 1986-05-02 21:00:00 TS 10.9937 133.517 main 824 814 PP________P___ WP021986 11.1500 132.588 22 -1 10.8349 134.430 2 1005 0 0 LW 11.1549 132.619 1 21 4 320
1986112N02152 1986 44 WP MM KEN 1986-05-03 00:00:00 TS 11.1200 133.440 1006 tokyo main 816 816 OO________O___ jtwc_wp WP021986 11.3000 132.300 20 -1 11.0000 134.200 2 1006 0 0 0 11.3000 132.300 1 20 4 56
1986112N02152 1986 44 WP MM KEN 1986-05-03 03:00:00 TS 11.2301 133.878 main 872 839 _P____________ WP021986 -1 11.2301 133.878 2 1006 0 0 1 4 8
1986112N02152 1986 44 WP MM KEN 1986-05-03 06:00:00 TS 11.5000 133.500 1006 tokyo main 839 _O____________ -1 11.5000 133.500 2 1006 0 0 0 1 9 306

Digital Typhoon Data and Search

About IBTrACS Database

This database is a web-friendly format of International Best Track Archive for Climate Stewardship (IBTrACS), a global best track data archive curated by NOAA dating back to 1842.

Updated: 2021-10-21